Cumberland, Georgia
Current Conditions -  °F | °C
As of 10:14 AM on Monday 22 Dec 2014 (Local Time) from KMGE Reporting Station
Drizzle Drizzle  
Wind Chill: 41°   Ceiling: 300
Heat Index: 45°   Visibility: 1.2mi
Dew Point: 45°   Wind: 6mph
Humidity: 100%   Direction: 90°E
Pressure: 30.02"   Gusts: NA
Location:  33.8691°N, 84.4633°W
Report Text: KMGE 221514Z 09005KT 1 1/4SM -DZ BR OVC003 07/07 A3002 RMK AO2A $
Loading
Personal Weather Stations






























Interactive Weather Map New forecast layout! Learn more

10-Day Weather Forecast

Advertisements
Track Severe Weather on mobile